Dardenne Prairie, Missouri
Current Conditions -  °F | °C
As of 3:54 AM on Saturday 29 Nov 2014 (Local Time) from KSUS Reporting Station
Clear Clear  
Wind Chill:   Ceiling: Unl
Heat Index:   Visibility: 10mi
Dew Point:   Wind: 6mph
Humidity: 71%   Direction: 180°S
Pressure: 29.79"   Gusts: NA
Location:  38.757°N, 90.7247°W
Report Text: KSUS 290954Z AUTO 18005KT 10SM CLR 07/02 A2979 RMK AO2 SLP088 T00720022
Loading
Personal Weather Stations






























Interactive Weather Map New forecast layout! Learn more

10-Day Weather Forecast

Advertisements
Track Severe Weather on mobile